Time;durP1;ratioP1;P1;durP2;ratioP2;P2;SDS_P1;SDS_P2;PMS_P1;PMS_P2;Temp;Humidity;BMP_temperature;BMP_pressure;BME280_temperature;BME280_humidity;BME280_pressure;Samples;Min_cycle;Max_cycle;Signal;HPM_P1;HPM_P2
2022/01/25 00:08:23;;;;;;;29.23;14.50;;;5.10;1.00;;;;;;5033092;28;20435;-75
2022/01/25 00:28:41;;;;;;;39.10;17.03;;;5.20;1.00;;;;;;5033507;28;20495;-76
2022/01/25 00:31:10;;;;;;;35.33;16.70;;;5.20;1.00;;;;;;5033324;28;20208;-67
2022/01/25 00:33:38;;;;;;;37.70;16.90;;;5.10;1.00;;;;;;5033270;28;20857;-75
2022/01/25 00:36:10;;;;;;;43.63;17.70;;;5.10;1.00;;;;;;5033174;28;20926;-75
2022/01/25 00:38:36;;;;;;;38.23;16.40;;;5.10;1.00;;;;;;5031820;28;20876;-68
2022/01/25 00:41:02;;;;;;;33.70;16.17;;;5.00;1.00;;;;;;5031938;28;20919;-67
2022/01/25 00:43:28;;;;;;;38.70;19.17;;;5.00;1.00;;;;;;5032992;28;20411;-68
2022/01/25 00:45:59;;;;;;;37.57;17.00;;;5.10;1.00;;;;;;5033098;28;20516;-75
2022/01/25 00:49:01;;;;;;;34.57;17.70;;;5.20;1.00;;;;;;5033065;28;20229;-75
2022/01/25 00:54:08;;;;;;;38.83;16.47;;;5.20;1.00;;;;;;5032977;28;20878;-75
2022/01/25 00:56:37;;;;;;;26.50;13.60;;;5.10;1.00;;;;;;5032468;28;20741;-75
2022/01/25 00:59:09;;;;;;;34.27;16.33;;;5.20;1.00;;;;;;5032328;28;20394;-76
2022/01/25 01:01:35;;;;;;;36.17;14.67;;;5.20;1.00;;;;;;5032725;28;20418;-76
2022/01/25 01:04:01;;;;;;;39.10;15.47;;;5.20;1.00;;;;;;5032912;28;20404;-76
2022/01/25 01:06:27;;;;;;;30.03;15.90;;;5.20;1.00;;;;;;5033100;28;20420;-67
2022/01/25 01:08:54;;;;;;;36.07;14.77;;;5.20;1.00;;;;;;5032105;28;20222;-67
2022/01/25 01:11:28;;;;;;;29.20;15.40;;;5.20;1.00;;;;;;5031405;28;20243;-76
2022/01/25 01:14:20;;;;;;;35.77;18.03;;;5.20;1.00;;;;;;5032704;28;20404;-74
2022/01/25 01:34:10;;;;;;;39.13;17.20;;;5.20;1.00;;;;;;5020314;28;20813;-76
2022/01/25 01:43:37;;;;;;;33.60;15.97;;;5.20;1.00;;;;;;5032664;28;20412;-75
2022/01/25 01:48:56;;;;;;;37.30;17.40;;;5.30;1.00;;;;;;5031546;28;20417;-75
2022/01/25 01:51:28;;;;;;;40.17;15.47;;;5.20;1.00;;;;;;5032416;28;20863;-67
2022/01/25 01:53:56;;;;;;;37.33;14.57;;;5.20;1.00;;;;;;5031788;28;20409;-76
2022/01/25 01:56:23;;;;;;;34.47;13.80;;;5.20;1.00;;;;;;5031537;28;20413;-75
2022/01/25 01:58:51;;;;;;;29.07;14.87;;;5.20;1.00;;;;;;5031549;28;20418;-76
2022/01/25 02:01:18;;;;;;;29.17;17.97;;;5.20;1.00;;;;;;5032388;28;20432;-67
2022/01/25 02:03:44;;;;;;;33.23;16.47;;;5.20;1.00;;;;;;5032547;28;20413;-76
2022/01/25 02:06:10;;;;;;;34.20;16.07;;;5.20;1.00;;;;;;5032362;28;20485;-74
2022/01/25 02:08:35;;;;;;;33.57;15.70;;;5.20;1.00;;;;;;5030220;28;20423;-67
2022/01/25 02:11:03;;;;;;;31.50;15.77;;;5.30;1.00;;;;;;5032204;28;20460;-67
2022/01/25 02:13:29;;;;;;;32.23;16.73;;;5.30;1.00;;;;;;5030995;28;20175;-76
2022/01/25 02:15:57;;;;;;;36.43;15.73;;;5.30;1.00;;;;;;5035848;28;20410;-73
2022/01/25 02:23:42;;;;;;;44.80;18.27;;;5.10;1.00;;;;;;5036095;28;20434;-67
2022/01/25 02:26:09;;;;;;;33.73;16.30;;;5.10;1.00;;;;;;5035654;28;20415;-67
2022/01/25 02:28:37;;;;;;;40.50;15.60;;;5.00;1.00;;;;;;5034681;28;20410;-67
2022/01/25 02:31:05;;;;;;;33.40;14.63;;;5.00;1.00;;;;;;5035069;28;20470;-75
2022/01/25 02:33:31;;;;;;;33.87;18.50;;;5.10;1.00;;;;;;5035492;28;20410;-67
2022/01/25 02:35:59;;;;;;;45.10;16.13;;;5.00;1.00;;;;;;5035524;28;20402;-68
2022/01/25 02:38:28;;;;;;;36.07;13.70;;;5.00;1.00;;;;;;5034111;28;20416;-75
2022/01/25 02:40:55;;;;;;;32.50;16.93;;;5.00;1.00;;;;;;5034703;28;20433;-67
2022/01/25 02:43:21;;;;;;;28.43;15.10;;;5.10;1.00;;;;;;5035405;28;20507;-68
2022/01/25 02:46:05;;;;;;;33.97;16.27;;;5.10;1.00;;;;;;5035486;28;20421;-67
2022/01/25 02:48:31;;;;;;;37.20;16.40;;;5.20;1.00;;;;;;5034390;28;20408;-75
2022/01/25 02:51:01;;;;;;;28.70;14.30;;;5.10;1.00;;;;;;5034392;28;20468;-75
2022/01/25 02:53:28;;;;;;;32.00;13.70;;;5.10;1.00;;;;;;5035149;28;20397;-75
2022/01/25 02:55:55;;;;;;;31.83;15.17;;;5.00;1.00;;;;;;5035140;28;20434;-75
2022/01/25 02:58:21;;;;;;;28.10;13.87;;;5.10;1.00;;;;;;5035152;28;20454;-74
2022/01/25 03:00:47;;;;;;;28.87;15.57;;;5.10;1.00;;;;;;5033172;28;20438;-75
2022/01/25 03:03:12;;;;;;;27.83;13.60;;;5.20;1.00;;;;;;5035074;28;20208;-75
2022/01/25 03:05:38;;;;;;;26.90;13.07;;;5.20;1.00;;;;;;5035005;28;20810;-67
2022/01/25 03:08:04;;;;;;;23.27;13.67;;;5.10;1.00;;;;;;5034505;28;20176;-75
2022/01/25 03:10:39;;;;;;;24.00;13.20;;;5.10;1.00;;;;;;5033784;28;20277;-67
2022/01/25 03:13:10;;;;;;;29.63;15.60;;;5.10;1.00;;;;;;5034853;28;20398;-75
2022/01/25 03:18:35;;;;;;;33.87;14.87;;;5.10;1.00;;;;;;5034749;28;20404;-75
2022/01/25 03:21:05;;;;;;;31.60;15.73;;;5.10;1.00;;;;;;5034473;28;20901;-75
2022/01/25 03:23:32;;;;;;;32.67;14.37;;;5.00;1.00;;;;;;5034517;28;20406;-75
2022/01/25 03:25:58;;;;;;;33.63;16.37;;;5.00;1.00;;;;;;5033952;28;20412;-68
2022/01/25 03:28:24;;;;;;;24.50;14.03;;;5.10;1.00;;;;;;5033179;28;20424;-75
2022/01/25 03:30:50;;;;;;;29.13;15.40;;;5.10;1.00;;;;;;5032423;28;20462;-70
2022/01/25 03:33:17;;;;;;;27.53;12.93;;;5.10;1.00;;;;;;5033066;28;20608;-75
2022/01/25 03:35:43;;;;;;;31.17;13.10;;;5.10;1.00;;;;;;5034602;28;20870;-67
2022/01/25 03:38:09;;;;;;;24.37;14.27;;;5.10;1.00;;;;;;5034363;28;20438;-67
2022/01/25 03:40:35;;;;;;;28.90;12.27;;;5.10;1.00;;;;;;5033336;28;20900;-68
2022/01/25 03:43:03;;;;;;;28.80;12.63;;;5.20;1.00;;;;;;5033733;28;20422;-69
2022/01/25 03:45:30;;;;;;;24.00;13.00;;;5.10;1.00;;;;;;5034063;28;20406;-76
2022/01/25 03:50:25;;;;;;;32.27;14.70;;;5.10;1.00;;;;;;5033123;28;20873;-76
2022/01/25 03:52:51;;;;;;;29.73;13.00;;;5.10;1.00;;;;;;5032805;28;20899;-67
2022/01/25 03:55:17;;;;;;;37.73;13.67;;;5.10;1.00;;;;;;5033910;28;20491;-67
2022/01/25 03:57:42;;;;;;;22.00;10.73;;;5.10;1.00;;;;;;5034014;28;20410;-68
2022/01/25 04:00:10;;;;;;;25.93;13.30;;;5.20;1.00;;;;;;5032536;28;20641;-75
2022/01/25 04:02:38;;;;;;;27.17;13.07;;;5.20;1.00;;;;;;5033751;28;20164;-76
2022/01/25 04:05:08;;;;;;;32.70;14.77;;;5.20;1.00;;;;;;5034103;28;20881;-67
2022/01/25 04:07:45;;;;;;;26.73;12.57;;;5.20;1.00;;;;;;5033755;28;20410;-67
2022/01/25 04:10:12;;;;;;;29.97;12.33;;;5.30;1.00;;;;;;5032659;28;20521;-68
2022/01/25 04:12:38;;;;;;;28.17;14.07;;;5.30;1.00;;;;;;5033770;28;20445;-76
2022/01/25 04:15:04;;;;;;;28.47;13.57;;;5.30;1.00;;;;;;5033795;28;20899;-67
2022/01/25 04:17:30;;;;;;;33.83;13.37;;;5.20;1.00;;;;;;5032941;28;20171;-75
2022/01/25 04:25:38;;;;;;;26.80;11.53;;;5.30;1.00;;;;;;5033455;28;20890;-67
2022/01/25 04:28:04;;;;;;;36.00;12.20;;;5.40;1.00;;;;;;5033378;28;20408;-76
2022/01/25 04:30:29;;;;;;;36.20;14.60;;;5.40;1.00;;;;;;5032450;28;20206;-67
2022/01/25 04:33:16;;;;;;;32.97;13.23;;;5.40;1.00;;;;;;5033361;28;20411;-67
2022/01/25 04:49:28;;;;;;;25.57;13.20;;;5.40;1.00;;;;;;5032220;28;20937;-76
2022/01/25 05:00:15;;;;;;;25.83;12.73;;;5.50;1.00;;;;;;5010137;28;20449;-76
2022/01/25 05:02:57;;;;;;;23.30;11.90;;;5.50;1.00;;;;;;5024423;28;20496;-76
2022/01/25 05:10:23;;;;;;;21.97;10.83;;;5.60;1.00;;;;;;5032104;28;20473;-76
2022/01/25 05:12:54;;;;;;;21.17;11.03;;;5.60;1.00;;;;;;5032376;28;20398;-69
2022/01/25 05:17:58;;;;;;;29.93;12.27;;;5.60;1.00;;;;;;5033145;28;20862;-68
2022/01/25 05:23:08;;;;;;;30.73;14.10;;;5.70;1.00;;;;;;5032934;28;20956;-75
2022/01/25 05:25:33;;;;;;;25.60;12.03;;;5.70;1.00;;;;;;5032789;28;20485;-67
2022/01/25 05:27:59;;;;;;;22.03;11.63;;;5.70;1.00;;;;;;5032796;28;20282;-75
2022/01/25 05:30:24;;;;;;;23.57;12.17;;;5.70;1.00;;;;;;5031425;28;20202;-75
2022/01/25 05:32:50;;;;;;;20.63;11.40;;;5.80;1.00;;;;;;5032464;28;20643;-67
2022/01/25 05:35:16;;;;;;;20.00;11.00;;;5.80;1.00;;;;;;5032749;28;20176;-68
2022/01/25 05:37:42;;;;;;;24.33;11.00;;;5.70;1.00;;;;;;5032827;28;20179;-68
2022/01/25 05:40:14;;;;;;;22.90;11.90;;;5.70;1.00;;;;;;5031582;28;20691;-68
2022/01/25 05:47:40;;;;;;;19.50;11.53;;;5.80;1.00;;;;;;5032535;28;20203;-76
2022/01/25 05:50:06;;;;;;;26.50;12.47;;;5.80;1.00;;;;;;5033825;28;20434;-67
2022/01/25 05:52:31;;;;;;;22.43;11.10;;;5.80;1.00;;;;;;5036282;28;20818;-73
2022/01/25 05:54:59;;;;;;;22.23;10.90;;;5.80;1.00;;;;;;5035335;28;20453;-76
2022/01/25 05:57:25;;;;;;;18.43;9.83;;;5.70;1.00;;;;;;5036206;28;20524;-76
2022/01/25 05:59:51;;;;;;;22.17;9.80;;;5.70;1.00;;;;;;5035327;28;20414;-76
2022/01/25 06:02:19;;;;;;;17.93;8.63;;;5.70;1.00;;;;;;5036148;28;20167;-68
2022/01/25 06:04:47;;;;;;;19.17;10.43;;;5.60;1.00;;;;;;5035951;28;20173;-75
2022/01/25 06:07:14;;;;;;;14.63;9.10;;;5.70;1.00;;;;;;5035598;28;20898;-68
2022/01/25 06:09:41;;;;;;;15.27;8.70;;;5.70;1.00;;;;;;5035215;28;20490;-77
2022/01/25 06:12:08;;;;;;;15.53;8.00;;;5.70;1.00;;;;;;5035623;28;20966;-67
2022/01/25 06:14:33;;;;;;;18.90;10.40;;;5.70;1.00;;;;;;5035843;28;20418;-69
2022/01/25 06:16:59;;;;;;;19.20;9.43;;;5.60;1.00;;;;;;5036045;28;20418;-67
2022/01/25 06:19:25;;;;;;;25.57;11.27;;;5.70;1.00;;;;;;5035006;28;20163;-76
2022/01/25 06:21:50;;;;;;;20.57;9.30;;;5.70;1.00;;;;;;5035870;28;20197;-68
2022/01/25 06:24:16;;;;;;;14.57;8.70;;;5.70;1.00;;;;;;5035754;28;20167;-68
2022/01/25 06:26:42;;;;;;;27.77;10.57;;;5.70;1.00;;;;;;5035099;28;20201;-68
2022/01/25 06:29:07;;;;;;;18.30;9.13;;;5.70;1.00;;;;;;5034998;28;20171;-76
2022/01/25 06:31:33;;;;;;;13.03;8.30;;;5.70;1.00;;;;;;5035439;28;20692;-76
2022/01/25 06:34:00;;;;;;;19.30;10.00;;;5.80;1.00;;;;;;5035446;28;20202;-68
2022/01/25 06:36:25;;;;;;;20.10;10.40;;;5.70;1.00;;;;;;5035462;28;20651;-76
2022/01/25 06:38:51;;;;;;;14.43;8.80;;;5.80;1.00;;;;;;5033282;28;20422;-75
2022/01/25 06:41:18;;;;;;;21.93;9.97;;;5.80;1.00;;;;;;5035037;28;20230;-75
2022/01/25 06:43:44;;;;;;;16.47;8.27;;;5.90;1.00;;;;;;5035193;28;20175;-75
2022/01/25 06:46:09;;;;;;;14.73;8.13;;;5.90;1.00;;;;;;5035351;28;20417;-75
2022/01/25 06:48:35;;;;;;;14.83;9.03;;;5.90;1.00;;;;;;5034259;28;20489;-74
2022/01/25 06:51:01;;;;;;;17.30;9.13;;;5.90;1.00;;;;;;5035167;28;20203;-75
2022/01/25 06:53:27;;;;;;;17.83;8.67;;;6.00;1.00;;;;;;5035199;28;20171;-76
2022/01/25 06:55:53;;;;;;;18.00;8.60;;;6.00;1.00;;;;;;5035325;28;20199;-67
2022/01/25 06:58:19;;;;;;;20.67;9.00;;;6.00;1.00;;;;;;5035205;28;20752;-77
2022/01/25 07:00:45;;;;;;;12.43;7.27;;;6.00;1.00;;;;;;5033248;28;20425;-67
2022/01/25 07:03:11;;;;;;;14.27;7.67;;;6.00;1.00;;;;;;5034712;28;20883;-76
2022/01/25 07:05:38;;;;;;;13.10;7.53;;;5.90;1.00;;;;;;5034993;28;20402;-76
2022/01/25 07:08:04;;;;;;;16.17;8.33;;;5.90;1.00;;;;;;5034976;28;20168;-67
2022/01/25 07:10:30;;;;;;;14.73;9.37;;;5.90;1.00;;;;;;5034026;28;20532;-66
2022/01/25 07:12:55;;;;;;;10.57;6.90;;;5.90;1.00;;;;;;5034777;28;20441;-68
2022/01/25 07:15:21;;;;;;;11.33;6.90;;;5.90;1.00;;;;;;5033556;28;20178;-66
2022/01/25 07:17:47;;;;;;;12.43;8.63;;;6.00;1.00;;;;;;5034863;28;20171;-67
2022/01/25 07:20:13;;;;;;;12.03;6.20;;;6.00;1.00;;;;;;5033181;28;20266;-67
2022/01/25 07:22:40;;;;;;;18.33;8.90;;;6.00;1.00;;;;;;5034696;28;20171;-67
2022/01/25 07:25:08;;;;;;;11.60;6.97;;;5.90;1.00;;;;;;5034499;28;20708;-67
2022/01/25 07:27:34;;;;;;;12.80;8.80;;;6.00;1.00;;;;;;5034620;28;20409;-77
2022/01/25 07:30:00;;;;;;;9.43;6.40;;;5.90;1.00;;;;;;5033531;28;20410;-68
2022/01/25 07:32:25;;;;;;;21.90;6.87;;;5.90;1.00;;;;;;5034553;28;20246;-76
2022/01/25 07:34:51;;;;;;;10.57;6.50;;;5.90;1.00;;;;;;5034437;28;20255;-67
2022/01/25 07:37:16;;;;;;;9.97;5.90;;;5.80;1.00;;;;;;5033009;28;20194;-76
2022/01/25 07:39:44;;;;;;;11.33;6.30;;;5.90;1.00;;;;;;5033024;28;20225;-67
2022/01/25 07:42:11;;;;;;;16.33;7.33;;;6.00;1.00;;;;;;5034244;28;20186;-67
2022/01/25 07:44:38;;;;;;;7.13;5.90;;;6.00;1.00;;;;;;5034278;28;20413;-68
2022/01/25 07:47:05;;;;;;;17.43;6.20;;;6.00;1.00;;;;;;5034193;28;20403;-68
2022/01/25 07:49:31;;;;;;;10.83;6.40;;;6.00;1.00;;;;;;5031911;28;20888;-76
2022/01/25 07:51:57;;;;;;;13.33;6.90;;;6.10;1.00;;;;;;5033932;28;20823;-75
2022/01/25 07:54:23;;;;;;;10.73;6.00;;;6.10;1.00;;;;;;5034125;28;20402;-76
2022/01/25 07:56:49;;;;;;;11.13;7.00;;;6.10;1.00;;;;;;5033297;28;20417;-76
2022/01/25 07:59:15;;;;;;;13.40;6.77;;;6.00;1.00;;;;;;5031729;28;20414;-69
2022/01/25 08:01:42;;;;;;;13.87;6.07;;;6.00;1.00;;;;;;5033921;28;20187;-76
2022/01/25 08:04:09;;;;;;;8.90;5.73;;;6.10;1.00;;;;;;5033812;28;20400;-67
2022/01/25 08:06:35;;;;;;;11.27;6.67;;;6.20;1.00;;;;;;5033889;28;20406;-76
2022/01/25 08:09:01;;;;;;;17.67;6.57;;;6.10;1.00;;;;;;5033008;28;20421;-76
2022/01/25 08:11:27;;;;;;;18.10;7.80;;;6.10;1.00;;;;;;5032681;28;20540;-76
2022/01/25 08:14:00;;;;;;;10.03;6.67;;;6.10;1.00;;;;;;5033878;28;20494;-76
2022/01/25 08:16:26;;;;;;;14.43;7.93;;;6.10;1.00;;;;;;5033152;28;20398;-67
2022/01/25 08:18:51;;;;;;;13.27;6.47;;;6.00;1.00;;;;;;5031830;28;20760;-67
2022/01/25 08:21:17;;;;;;;11.70;7.37;;;6.00;1.00;;;;;;5033512;28;20313;-68
2022/01/25 08:23:43;;;;;;;9.00;6.20;;;6.00;1.00;;;;;;5033583;28;20655;-76
2022/01/25 08:26:08;;;;;;;11.70;6.47;;;6.00;1.00;;;;;;5033481;28;20163;-76
2022/01/25 08:28:34;;;;;;;14.00;6.63;;;6.00;1.00;;;;;;5032577;28;20714;-68
2022/01/25 08:31:00;;;;;;;12.30;6.20;;;6.00;1.00;;;;;;5033096;28;20253;-73
2022/01/25 08:33:26;;;;;;;15.77;6.37;;;6.00;1.00;;;;;;5033004;28;20613;-68
2022/01/25 08:35:51;;;;;;;22.80;7.63;;;6.00;1.00;;;;;;5033336;28;20164;-76
2022/01/25 08:38:17;;;;;;;15.13;8.63;;;6.10;1.00;;;;;;5033346;28;20175;-67
2022/01/25 08:40:43;;;;;;;15.20;7.00;;;6.10;1.00;;;;;;5031360;28;20602;-76
2022/01/25 08:43:08;;;;;;;17.40;6.87;;;6.00;1.00;;;;;;5033260;28;20631;-68
2022/01/25 08:45:34;;;;;;;10.83;6.20;;;6.00;1.00;;;;;;5033162;28;20166;-76
2022/01/25 08:47:59;;;;;;;12.30;7.37;;;6.10;1.00;;;;;;5033213;28;20908;-68
2022/01/25 08:50:26;;;;;;;12.27;5.67;;;6.20;1.00;;;;;;5031573;28;20592;-77
2022/01/25 08:52:51;;;;;;;9.00;6.53;;;6.20;1.00;;;;;;5033181;28;20168;-76
2022/01/25 08:55:17;;;;;;;9.00;5.80;;;6.10;1.00;;;;;;5033192;28;20413;-68
2022/01/25 08:57:43;;;;;;;8.90;6.43;;;6.20;1.00;;;;;;5033119;28;20199;-68
2022/01/25 09:00:11;;;;;;;13.80;6.27;;;6.20;1.00;;;;;;5032115;28;20664;-68
2022/01/25 09:02:37;;;;;;;18.03;7.10;;;6.20;1.00;;;;;;5032918;28;20164;-77
2022/01/25 09:05:04;;;;;;;11.93;6.40;;;6.20;1.00;;;;;;5033229;28;20393;-77
2022/01/25 09:07:30;;;;;;;12.30;6.97;;;6.20;1.00;;;;;;5032935;28;20243;-75
2022/01/25 09:09:55;;;;;;;23.13;7.37;;;6.20;1.00;;;;;;5031309;28;20807;-68
2022/01/25 09:12:21;;;;;;;8.97;5.60;;;6.20;1.00;;;;;;5032978;28;20410;-76
2022/01/25 09:14:47;;;;;;;7.50;4.63;;;6.30;1.00;;;;;;5031676;28;20179;-76
2022/01/25 09:17:13;;;;;;;10.27;5.47;;;6.30;1.00;;;;;;5032931;28;20683;-72
2022/01/25 09:19:39;;;;;;;8.83;6.47;;;6.30;1.00;;;;;;5031907;28;20667;-76
2022/01/25 09:22:08;;;;;;;8.70;5.60;;;6.40;1.00;;;;;;5032758;28;20190;-76
2022/01/25 09:24:34;;;;;;;9.37;6.10;;;6.40;1.00;;;;;;5035499;28;20414;-76
2022/01/25 09:27:02;;;;;;;9.77;6.30;;;6.40;1.00;;;;;;5036452;28;20402;-68
2022/01/25 09:29:28;;;;;;;6.73;5.63;;;6.50;1.00;;;;;;5035906;28;20414;-76
2022/01/25 09:31:54;;;;;;;9.27;6.17;;;6.40;1.00;;;;;;5036545;28;20966;-74
2022/01/25 09:34:23;;;;;;;12.00;6.27;;;6.50;1.00;;;;;;5036717;28;20398;-76
2022/01/25 09:36:50;;;;;;;15.03;4.93;;;6.40;1.00;;;;;;5036637;28;20167;-67
2022/01/25 09:39:15;;;;;;;8.80;5.83;;;6.50;1.00;;;;;;5035783;28;20918;-76
2022/01/25 09:41:41;;;;;;;7.30;6.53;;;6.40;1.00;;;;;;5036525;28;20422;-76
2022/01/25 09:44:07;;;;;;;11.20;5.17;;;6.40;1.00;;;;;;5036016;28;20448;-76
2022/01/25 09:46:33;;;;;;;13.53;5.70;;;6.50;1.00;;;;;;5036315;28;20199;-68
2022/01/25 09:48:58;;;;;;;9.63;5.70;;;6.50;1.00;;;;;;5053061;28;20182;-77
2022/01/25 09:51:25;;;;;;;7.43;4.83;;;6.50;1.00;;;;;;5054268;28;20539;-68
2022/01/25 09:53:51;;;;;;;8.20;5.60;;;6.50;1.00;;;;;;5056075;28;20171;-75
2022/01/25 09:56:17;;;;;;;5.97;4.83;;;6.50;1.00;;;;;;5048388;28;20549;-69
2022/01/25 09:58:44;;;;;;;12.03;6.80;;;6.50;1.00;;;;;;5035395;28;20432;-68
2022/01/25 10:01:10;;;;;;;12.43;5.13;;;6.60;1.00;;;;;;5041232;28;20191;-69
2022/01/25 10:03:38;;;;;;;7.63;4.80;;;6.70;1.00;;;;;;5056083;28;20405;-69
2022/01/25 10:06:11;;;;;;;6.23;4.60;;;6.60;1.00;;;;;;5051272;28;20425;-77
2022/01/25 10:08:38;;;;;;;8.60;5.47;;;6.60;1.00;;;;;;5035127;28;20414;-76
2022/01/25 10:11:08;;;;;;;7.10;4.60;;;6.70;1.00;;;;;;5048046;28;20468;-68
2022/01/25 10:13:36;;;;;;;5.90;5.30;;;6.70;1.00;;;;;;5036201;28;20410;-78
2022/01/25 10:16:03;;;;;;;9.73;4.47;;;6.70;1.00;;;;;;5035904;28;20906;-77
2022/01/25 10:18:42;;;;;;;8.07;4.90;;;6.70;1.00;;;;;;5049107;28;20425;-75
2022/01/25 10:21:22;;;;;;;8.20;4.70;;;6.70;1.00;;;;;;5055707;28;20987;-78
2022/01/25 10:24:09;;;;;;;6.70;5.13;;;6.60;1.00;;;;;;5038829;28;20429;-75
2022/01/25 10:26:42;;;;;;;6.80;5.27;;;6.70;1.00;;;;;;5035736;28;20405;-74
2022/01/25 10:29:23;;;;;;;12.63;5.30;;;6.80;1.00;;;;;;5053632;28;20417;-75
2022/01/25 10:32:02;;;;;;;9.07;5.70;;;6.70;1.00;;;;;;5055596;28;20539;-73
2022/01/25 10:34:40;;;;;;;13.47;5.33;;;6.70;1.00;;;;;;5034725;28;20410;-75
2022/01/25 10:37:08;;;;;;;6.90;3.50;;;6.80;1.00;;;;;;5036468;28;20486;-68
2022/01/25 10:39:36;;;;;;;7.47;4.07;;;6.70;1.00;;;;;;5054063;28;20743;-68
2022/01/25 10:42:26;;;;;;;8.67;4.80;;;6.80;1.00;;;;;;5054962;28;20425;-75
2022/01/25 10:44:55;;;;;;;4.97;4.27;;;6.80;1.00;;;;;;5035138;28;20475;-76
2022/01/25 10:47:52;;;;;;;6.77;5.40;;;6.80;1.00;;;;;;5036229;28;20418;-68
2022/01/25 10:50:35;;;;;;;4.17;3.80;;;6.70;1.00;;;;;;5034003;28;20484;-76
2022/01/25 10:53:15;;;;;;;6.60;4.27;;;6.60;1.00;;;;;;5035311;28;20409;-68
2022/01/25 10:55:46;;;;;;;4.20;3.80;;;6.70;1.00;;;;;;5034784;28;20395;-75
2022/01/25 10:58:13;;;;;;;11.53;4.60;;;6.70;1.00;;;;;;5035168;28;20391;-76
2022/01/25 11:00:42;;;;;;;9.13;3.70;;;6.80;1.00;;;;;;5034089;28;20441;-69
2022/01/25 11:03:09;;;;;;;3.70;3.40;;;6.80;1.00;;;;;;5035158;28;20395;-67
2022/01/25 11:05:37;;;;;;;8.60;4.73;;;6.80;1.00;;;;;;5050626;28;20418;-67
2022/01/25 11:08:15;;;;;;;3.43;3.03;;;6.80;1.00;;;;;;5050312;28;20413;-68
2022/01/25 11:10:56;;;;;;;6.10;3.87;;;6.90;1.00;;;;;;5033833;28;20537;-76
2022/01/25 11:13:35;;;;;;;7.13;3.87;;;6.80;1.00;;;;;;5034418;28;20887;-76
2022/01/25 11:16:07;;;;;;;7.50;4.70;;;6.70;1.00;;;;;;5033688;28;20759;-68
2022/01/25 11:18:33;;;;;;;3.73;3.43;;;6.80;1.00;;;;;;5033921;28;20414;-73
2022/01/25 11:21:04;;;;;;;6.43;5.07;;;6.70;1.00;;;;;;5034676;28;20978;-76
2022/01/25 11:23:35;;;;;;;3.63;3.43;;;6.80;1.00;;;;;;5034619;28;20410;-76
2022/01/25 11:26:04;;;;;;;5.07;3.70;;;6.80;1.00;;;;;;5034676;28;20402;-76
2022/01/25 11:28:35;;;;;;;14.60;4.73;;;6.80;1.00;;;;;;5033374;28;20760;-74
2022/01/25 11:31:05;;;;;;;5.73;4.53;;;6.70;1.00;;;;;;5034396;28;20576;-69
2022/01/25 11:33:33;;;;;;;5.03;3.97;;;6.70;1.00;;;;;;5034553;28;20390;-68
2022/01/25 11:35:59;;;;;;;6.90;4.20;;;6.80;1.00;;;;;;5034553;28;20430;-76
2022/01/25 11:38:41;;;;;;;5.97;3.30;;;6.80;1.00;;;;;;5034368;28;20405;-75
2022/01/25 11:41:15;;;;;;;4.60;3.60;;;6.80;1.00;;;;;;5034206;28;20433;-68
2022/01/25 11:43:44;;;;;;;14.77;4.97;;;6.90;1.00;;;;;;5034251;28;20393;-69
2022/01/25 11:46:10;;;;;;;5.57;3.40;;;6.80;1.00;;;;;;5049092;28;20414;-76
2022/01/25 11:48:43;;;;;;;4.50;4.00;;;6.80;1.00;;;;;;5033219;28;20399;-70
2022/01/25 11:51:21;;;;;;;3.90;3.60;;;6.90;1.00;;;;;;5033978;28;20458;-76
2022/01/25 11:53:50;;;;;;;4.07;3.77;;;6.90;1.00;;;;;;5034186;28;20763;-76
2022/01/25 11:56:16;;;;;;;7.03;3.23;;;7.00;1.00;;;;;;5034074;28;20394;-76
2022/01/25 11:58:54;;;;;;;6.60;4.63;;;6.90;1.00;;;;;;5033147;28;20398;-76
2022/01/25 12:01:22;;;;;;;5.30;4.30;;;6.90;1.00;;;;;;5033789;28;20480;-75
2022/01/25 12:03:56;;;;;;;5.50;4.00;;;6.90;1.00;;;;;;5033530;28;20433;-76
2022/01/25 12:06:31;;;;;;;5.37;3.77;;;7.00;1.00;;;;;;5034049;28;20410;-69
2022/01/25 12:11:52;;;;;;;4.90;3.43;;;6.90;1.00;;;;;;5033566;28;20460;-76
2022/01/25 12:14:28;;;;;;;8.93;4.57;;;6.90;1.00;;;;;;5033724;28;20895;-76
2022/01/25 12:16:55;;;;;;;5.93;4.43;;;6.90;1.00;;;;;;5033701;28;20858;-69
2022/01/25 12:19:32;;;;;;;6.37;3.70;;;6.80;1.00;;;;;;5032675;28;20398;-77
2022/01/25 12:22:02;;;;;;;3.90;3.57;;;6.80;1.00;;;;;;5032879;28;20882;-75
2022/01/25 12:25:03;;;;;;;17.40;4.07;;;6.70;1.00;;;;;;5033772;28;20398;-76
2022/01/25 12:27:47;;;;;;;4.07;3.63;;;6.80;1.00;;;;;;5033448;28;20420;-70
2022/01/25 12:30:26;;;;;;;4.13;3.87;;;6.70;1.00;;;;;;5032451;28;20505;-70
2022/01/25 12:33:00;;;;;;;7.53;3.20;;;6.80;1.00;;;;;;5033411;28;20411;-69
2022/01/25 12:35:35;;;;;;;4.40;3.97;;;6.80;1.00;;;;;;5033299;28;20451;-75
2022/01/25 12:38:03;;;;;;;7.43;3.97;;;6.80;1.00;;;;;;5033376;28;20898;-69
2022/01/25 12:40:32;;;;;;;6.50;4.53;;;6.80;1.00;;;;;;5032011;28;20410;-72
2022/01/25 12:43:05;;;;;;;3.90;3.60;;;6.80;1.00;;;;;;5033140;28;20406;-77
2022/01/25 12:45:35;;;;;;;6.60;4.33;;;6.80;1.00;;;;;;5033051;28;20440;-75
2022/01/25 12:48:07;;;;;;;7.20;3.70;;;6.80;1.00;;;;;;5033294;28;20430;-76
2022/01/25 12:50:39;;;;;;;6.47;3.83;;;6.70;1.00;;;;;;5032148;28;20466;-70
2022/01/25 12:53:07;;;;;;;5.00;3.70;;;6.80;1.00;;;;;;5033193;28;20759;-76
2022/01/25 12:55:41;;;;;;;10.37;3.93;;;6.70;1.00;;;;;;5032946;28;20399;-69
2022/01/25 12:58:07;;;;;;;3.90;3.60;;;6.70;1.00;;;;;;5032670;28;20413;-75
2022/01/25 13:00:40;;;;;;;3.67;3.37;;;6.70;1.00;;;;;;5031702;28;20426;-70
2022/01/25 13:03:17;;;;;;;5.70;4.20;;;6.80;1.00;;;;;;5032981;28;20925;-76
2022/01/25 13:05:49;;;;;;;4.80;3.67;;;6.80;1.00;;;;;;5032916;28;20492;-77
2022/01/25 13:08:37;;;;;;;3.60;3.07;;;6.80;1.00;;;;;;5032992;28;20406;-75
2022/01/25 13:11:15;;;;;;;4.73;3.43;;;6.70;1.00;;;;;;5032822;28;20450;-69
2022/01/25 13:13:57;;;;;;;6.53;3.90;;;6.70;1.00;;;;;;5032886;28;20406;-70
2022/01/25 13:16:39;;;;;;;4.20;3.80;;;6.80;1.00;;;;;;5032955;28;20415;-75
2022/01/25 13:19:05;;;;;;;4.20;3.70;;;6.80;1.00;;;;;;5032147;28;20410;-75
2022/01/25 13:21:48;;;;;;;6.00;3.73;;;6.80;1.00;;;;;;5032148;28;20418;-69
2022/01/25 13:24:17;;;;;;;3.20;2.90;;;6.80;1.00;;;;;;5032750;28;20164;-75
2022/01/25 13:27:03;;;;;;;7.70;3.77;;;6.80;1.00;;;;;;5031505;28;20415;-69
2022/01/25 13:32:52;;;;;;;7.23;3.00;;;6.70;1.00;;;;;;5023531;28;20449;-75
2022/01/25 13:35:32;;;;;;;7.00;4.37;;;6.70;1.00;;;;;;5032796;28;20961;-70
2022/01/25 13:38:11;;;;;;;3.23;3.03;;;6.80;1.00;;;;;;5032439;28;20910;-70
2022/01/25 13:40:50;;;;;;;5.47;3.80;;;6.80;1.00;;;;;;5031252;28;20426;-70
2022/01/25 13:45:56;;;;;;;5.60;4.30;;;6.80;1.00;;;;;;5032611;28;20432;-75
2022/01/25 13:48:24;;;;;;;6.17;3.13;;;6.80;1.00;;;;;;5032608;28;20498;-70
2022/01/25 13:50:54;;;;;;;4.70;4.40;;;6.90;1.00;;;;;;5031593;28;20473;-69
2022/01/25 13:53:20;;;;;;;4.40;4.03;;;6.80;1.00;;;;;;5032583;28;20405;-69
2022/01/25 13:55:51;;;;;;;6.80;3.27;;;6.80;1.00;;;;;;5032163;28;20481;-74
2022/01/25 13:58:26;;;;;;;8.47;3.90;;;6.70;1.00;;;;;;5032257;28;20473;-76
2022/01/25 14:00:53;;;;;;;6.47;3.70;;;6.70;1.00;;;;;;5031727;28;20487;-75
2022/01/25 14:03:31;;;;;;;7.33;3.50;;;6.70;1.00;;;;;;5032439;28;20895;-69
2022/01/25 14:05:57;;;;;;;5.33;4.10;;;6.80;1.00;;;;;;5032348;28;20895;-75
2022/01/25 14:08:41;;;;;;;9.50;4.27;;;6.80;1.00;;;;;;5032216;28;20406;-75
2022/01/25 14:11:52;;;;;;;6.50;3.77;;;6.80;1.00;;;;;;5035092;28;20951;-69
2022/01/25 14:25:13;;;;;;;6.40;3.77;;;6.80;1.00;;;;;;5035890;28;20739;-75
2022/01/25 14:27:53;;;;;;;3.57;3.27;;;6.70;1.00;;;;;;5051145;28;20923;-69
2022/01/25 14:30:20;;;;;;;3.60;3.30;;;6.70;1.00;;;;;;5034689;28;20483;-69
2022/01/25 14:33:11;;;;;;;3.77;3.10;;;6.60;1.00;;;;;;5035667;28;20481;-69
2022/01/25 14:35:48;;;;;;;3.87;3.30;;;6.60;1.00;;;;;;5035000;28;20395;-69
2022/01/25 14:38:24;;;;;;;4.57;4.17;;;6.70;1.00;;;;;;5035586;28;20417;-75
2022/01/25 14:41:02;;;;;;;4.03;3.63;;;6.80;1.00;;;;;;5034737;28;20437;-70
2022/01/25 14:43:30;;;;;;;4.27;3.87;;;6.70;1.00;;;;;;5035477;28;20894;-75
2022/01/25 14:46:23;;;;;;;3.17;2.93;;;6.70;1.00;;;;;;5035409;28;20414;-71
2022/01/25 14:49:03;;;;;;;6.50;3.87;;;6.70;1.00;;;;;;5031952;28;20545;-74
2022/01/25 14:51:54;;;;;;;3.53;3.20;;;6.70;1.00;;;;;;5035141;28;20544;-75
2022/01/25 14:54:26;;;;;;;3.37;3.17;;;6.80;1.00;;;;;;5032199;28;20434;-69
2022/01/25 14:56:56;;;;;;;3.73;3.33;;;6.70;1.00;;;;;;5045958;28;20409;-69
2022/01/25 14:59:28;;;;;;;3.33;2.97;;;6.70;1.00;;;;;;5053790;28;20890;-70
2022/01/25 15:01:58;;;;;;;4.60;3.20;;;6.60;1.00;;;;;;5035341;28;20815;-74
2022/01/25 15:04:26;;;;;;;3.30;3.00;;;6.70;1.00;;;;;;5034884;28;20410;-68
2022/01/25 15:06:51;;;;;;;4.67;4.27;;;6.70;1.00;;;;;;5034805;28;20509;-75
2022/01/25 15:09:18;;;;;;;6.37;3.97;;;6.70;1.00;;;;;;5034027;28;20485;-74
2022/01/25 15:11:44;;;;;;;3.50;3.20;;;6.70;1.00;;;;;;5034687;28;20199;-75
2022/01/25 15:14:18;;;;;;;3.13;2.80;;;6.70;1.00;;;;;;5034709;28;20410;-68
2022/01/25 15:16:44;;;;;;;4.00;3.50;;;6.60;1.00;;;;;;5034503;28;20414;-69
2022/01/25 15:19:10;;;;;;;3.77;3.47;;;6.70;1.00;;;;;;5033837;28;20451;-68